Mesa, AZ (85201)

5:59 AM MST on July 25, 2016 (GMT -0700)
Park of the Canals | | Change Station

Elev 1257 ft 33.44 °N, 111.82 °W | Updated 13 minutes ago

Partly Cloudy
Partly Cloudy
87.6 °F
Feels Like 88 °F
N
3.7
Wind Variable Wind from ESE

Today
High -- | Low -- °F
--% Chance of Precip.
Yesterday
High -- | Low -- °F
Precip. -- in
Pressure 29.85 in
Visibility 10.0 miles
Clouds Few 13000 ft
Few 15000 ft
Heat Index 88 °F
Dew Point 62 °F
Humidity 43%
Rainfall 0.00 in
Snow Depth Not available.
5:35 AM 7:31 PM
Waning Gibbous, 66% visible
METAR KPHX 251251Z 15005KT 10SM FEW130 FEW150 32/17 A2991 RMK AO2 SLP106 T03170167
Pressure 29.85 in
Visibility 10.0 miles
Clouds Few 13000 ft
Few 15000 ft
Heat Index 88 °F
Dew Point 62 °F
Humidity 43%
Rainfall 0.00 in
Snow Depth Not available.
5:35 AM 7:31 PM
Waning Gibbous, 66% visible
METAR KPHX 251251Z 15005KT 10SM FEW130 FEW150 32/17 A2991 RMK AO2 SLP106 T03170167

10-Day Weather Forecast

Almanac

Astronomy

Jul. 25, 2016 Rise Set
Actual Time
Civil Twilight
Nautical Twilight
Astronomical Twilight
Moon
Length of Visible Light
Length of Day
Tomorrow will be .
, % of the Moon is Illuminated

Today's Extremes

State Highs State Lows

Community

WunderPhotos

Upload Photos

1,927,296 photos uploaded!

WunderBlog® & News

Nearby

Air Quality

  Air Quality AQ Index Pollutant
Not available.

Snow Depth

Station Depth Elevation

Earthquake Activity

City Distance Mag. Time & Date
Minimum magnitude displayed is 2.5.

Coastal Water Temperatures

Place Temperature

Stations

Nearby Weather Stations

Station Location Temp. Windchill Dew Point Humidity Wind Precip. Elev Updated Type
                   

Watches & Warnings

There are currently no watches in effect.